Search for airport 
image banner adimage banner ad
image banner ad

SSNG - Montenegro Airport

Located in Montenegro, Brazil

ICAO - SSNG, IATA - QGF

Data provided by Airmate  

General information

Coordinates: S29°43'11" W51°29'20"
Elevation is 78 feet MSL.
Magnetic variation is -17° East
View others Airports in Rio Grande do Sul

Operational data

Open for public use
Current time UTC:
Current local time:
Weather at : SBCO - Canoas Airport ( 42 km )
METAR: SBCO 021500Z VRB04KT 9999 SCT035 30/20 Q1009
TAF: TAF SBCO 020900Z 0212/0224 12008KT 9999 SCT030 TX28/0217Z TN22/0223Z BECMG 0216/0218 12010KT 9000 SHRA FEW018 FEW030TCU BECMG 0219/0221 10004KT 9999 FEW022 FEW032 RMK PAY
View NOTAMs / SUP AIP / TFR affecting this airport [VIEW]
Communications frequencies: [VIEW]

Runways:

RWY identifierQFULength (ft)Width (ft)SurfaceLDA (ft)
13301875GRS
31301875GRS

Airport contact information

Address: Montenegro Brazil

Other aviation service providers

Aviation club (not for profit)

Aeroclube De Montenegro

Aeroclube De Montenegro

Satellite view of SSNG